Time;durP1;ratioP1;P1;durP2;ratioP2;P2;SDS_P1;SDS_P2;PMS_P1;PMS_P2;Temp;Humidity;BMP_temperature;BMP_pressure;BME280_temperature;BME280_humidity;BME280_pressure;Samples;Min_cycle;Max_cycle;Signal;HPM_P1;HPM_P2
2021/10/04 00:01:12;;;;;;;366.30;342.70;;;;;;;;;;5027439;28;20481;-69
2021/10/04 00:03:39;;;;;;;363.23;340.43;;;;;;;;;;5035968;28;20855;-72
2021/10/04 00:06:06;;;;;;;361.57;338.77;;;;;;;;;;5034864;28;20546;-70
2021/10/04 00:08:34;;;;;;;356.40;333.90;;;;;;;;;;5033756;28;20452;-70
2021/10/04 00:11:01;;;;;;;359.60;337.10;;;;;;;;;;5033636;28;20480;-70
2021/10/04 00:13:28;;;;;;;365.53;342.90;;;;;;;;;;5029715;28;20825;-69
2021/10/04 00:15:58;;;;;;;361.13;338.33;;;;;;;;;;5024899;28;20445;-70
2021/10/04 00:18:25;;;;;;;364.07;340.97;;;;;;;;;;5014536;28;20489;-70
2021/10/04 00:20:52;;;;;;;354.70;332.33;;;;;;;;;;5019472;28;20469;-70
2021/10/04 00:23:19;;;;;;;347.50;326.23;;;;;;;;;;5033811;28;20467;-70
2021/10/04 00:25:46;;;;;;;348.23;326.93;;;;;;;;;;5024344;28;20449;-70
2021/10/04 00:28:13;;;;;;;348.10;327.00;;;;;;;;;;5027062;28;20467;-70
2021/10/04 00:30:40;;;;;;;345.37;324.30;;;;;;;;;;5032125;28;20473;-70
2021/10/04 00:33:09;;;;;;;357.37;335.47;;;;;;;;;;5030018;28;20956;-70
2021/10/04 00:35:36;;;;;;;351.40;329.90;;;;;;;;;;5031303;28;20471;-70
2021/10/04 00:38:03;;;;;;;343.90;322.70;;;;;;;;;;5033512;28;20448;-69
2021/10/04 00:40:31;;;;;;;343.73;322.23;;;;;;;;;;5031289;28;20468;-70
2021/10/04 00:42:59;;;;;;;343.97;322.53;;;;;;;;;;5034385;28;20449;-70
2021/10/04 00:45:26;;;;;;;337.03;316.47;;;;;;;;;;5032254;28;20480;-70
2021/10/04 00:47:53;;;;;;;335.40;314.90;;;;;;;;;;5024717;28;20976;-70
2021/10/04 00:50:23;;;;;;;340.03;319.43;;;;;;;;;;5022472;28;20469;-71
2021/10/04 00:52:50;;;;;;;341.03;320.47;;;;;;;;;;5022866;28;20454;-70
2021/10/04 00:55:17;;;;;;;338.70;318.00;;;;;;;;;;5020775;28;20449;-71
2021/10/04 00:57:44;;;;;;;342.73;321.80;;;;;;;;;;5032834;28;20452;-70
2021/10/04 01:00:13;;;;;;;342.03;321.13;;;;;;;;;;5034223;28;20456;-71
2021/10/04 01:02:40;;;;;;;348.80;327.70;;;;;;;;;;5037378;28;20477;-70
2021/10/04 01:05:07;;;;;;;345.70;324.90;;;;;;;;;;5026434;28;20476;-71
2021/10/04 01:07:36;;;;;;;343.00;322.60;;;;;;;;;;5032552;28;20448;-70
2021/10/04 01:10:04;;;;;;;334.50;314.30;;;;;;;;;;5031960;28;20449;-72
2021/10/04 01:12:31;;;;;;;329.97;310.20;;;;;;;;;;5033240;28;20449;-71
2021/10/04 01:14:58;;;;;;;337.47;317.37;;;;;;;;;;5029910;28;20449;-71
2021/10/04 01:17:25;;;;;;;327.67;308.13;;;;;;;;;;5026709;28;20955;-72
2021/10/04 01:19:52;;;;;;;331.77;311.90;;;;;;;;;;5032116;28;20445;-72
2021/10/04 01:22:21;;;;;;;337.93;317.43;;;;;;;;;;5033378;28;20476;-72
2021/10/04 01:24:48;;;;;;;337.67;317.40;;;;;;;;;;5033350;28;20483;-72
2021/10/04 01:27:15;;;;;;;339.83;318.90;;;;;;;;;;5033019;28;20838;-71
2021/10/04 01:29:42;;;;;;;333.43;312.80;;;;;;;;;;5032228;28;21154;-71
2021/10/04 01:32:09;;;;;;;339.23;318.80;;;;;;;;;;5033613;28;20465;-71
2021/10/04 01:34:36;;;;;;;335.83;315.43;;;;;;;;;;5024101;28;20952;-72
2021/10/04 01:37:04;;;;;;;331.83;311.73;;;;;;;;;;5034197;28;20460;-73
2021/10/04 01:39:32;;;;;;;332.23;312.43;;;;;;;;;;5021866;28;20456;-72
2021/10/04 01:41:59;;;;;;;326.90;307.20;;;;;;;;;;5033224;28;20465;-72
2021/10/04 01:44:26;;;;;;;324.70;304.90;;;;;;;;;;5028662;28;20476;-71
2021/10/04 01:46:53;;;;;;;326.70;307.10;;;;;;;;;;5032247;28;20828;-72
2021/10/04 01:49:21;;;;;;;316.10;297.00;;;;;;;;;;5033989;28;20857;-71
2021/10/04 01:51:48;;;;;;;311.27;292.30;;;;;;;;;;5031617;28;20480;-71
2021/10/04 01:54:15;;;;;;;309.13;289.90;;;;;;;;;;5020761;28;20965;-72
2021/10/04 01:56:43;;;;;;;304.93;286.40;;;;;;;;;;5031053;28;20819;-72
2021/10/04 01:59:10;;;;;;;305.87;286.97;;;;;;;;;;5024934;28;20452;-71
2021/10/04 02:01:37;;;;;;;302.53;284.03;;;;;;;;;;5015032;28;20483;-71
2021/10/04 02:04:05;;;;;;;302.97;283.73;;;;;;;;;;5017081;28;20495;-72
2021/10/04 02:06:32;;;;;;;288.23;270.37;;;;;;;;;;5028732;28;20457;-72
2021/10/04 02:08:59;;;;;;;274.80;257.30;;;;;;;;;;5031762;28;20451;-72
2021/10/04 02:11:26;;;;;;;293.63;275.73;;;;;;;;;;5031992;28;20476;-71
2021/10/04 02:13:55;;;;;;;291.83;273.93;;;;;;;;;;5031630;28;20460;-71
2021/10/04 02:16:22;;;;;;;308.30;289.87;;;;;;;;;;5026785;28;20964;-71
2021/10/04 02:18:49;;;;;;;298.47;280.67;;;;;;;;;;5032014;28;20444;-68
2021/10/04 02:21:16;;;;;;;285.37;267.77;;;;;;;;;;5033220;28;20460;-68
2021/10/04 02:23:43;;;;;;;298.30;280.30;;;;;;;;;;5032632;28;20452;-69
2021/10/04 02:26:10;;;;;;;292.17;273.77;;;;;;;;;;5022747;28;20449;-70
2021/10/04 02:28:37;;;;;;;287.30;269.30;;;;;;;;;;5016629;28;20452;-70
2021/10/04 02:31:06;;;;;;;285.07;267.10;;;;;;;;;;5032162;28;20561;-70
2021/10/04 02:33:33;;;;;;;297.90;279.70;;;;;;;;;;5036511;28;20447;-71
2021/10/04 02:36:00;;;;;;;299.67;281.57;;;;;;;;;;5029022;28;20447;-70
2021/10/04 02:38:27;;;;;;;291.23;273.50;;;;;;;;;;5036635;28;20975;-71
2021/10/04 02:40:54;;;;;;;304.20;285.33;;;;;;;;;;5037185;28;20468;-72
2021/10/04 02:43:21;;;;;;;305.37;286.53;;;;;;;;;;5036458;28;20453;-70
2021/10/04 02:45:49;;;;;;;297.87;279.30;;;;;;;;;;5029740;28;20480;-70
2021/10/04 02:48:18;;;;;;;295.00;276.80;;;;;;;;;;5024374;28;20453;-70
2021/10/04 02:50:45;;;;;;;295.47;276.83;;;;;;;;;;5017458;28;20988;-70
2021/10/04 02:53:12;;;;;;;285.53;267.43;;;;;;;;;;5045837;28;20448;-70
2021/10/04 02:55:40;;;;;;;281.77;264.20;;;;;;;;;;5043864;28;20460;-71
2021/10/04 02:58:07;;;;;;;291.97;272.87;;;;;;;;;;5056450;28;20449;-74
2021/10/04 03:00:35;;;;;;;301.10;282.67;;;;;;;;;;5047887;28;20469;-73
2021/10/04 03:03:02;;;;;;;274.93;257.43;;;;;;;;;;5035864;28;20459;-70
2021/10/04 03:05:31;;;;;;;258.87;242.17;;;;;;;;;;5023625;28;20468;-70
2021/10/04 03:07:58;;;;;;;261.57;244.90;;;;;;;;;;5036680;28;20453;-70
2021/10/04 03:10:25;;;;;;;253.30;236.63;;;;;;;;;;5027920;28;20480;-71
2021/10/04 03:12:52;;;;;;;237.00;220.80;;;;;;;;;;5017158;28;20925;-71
2021/10/04 03:15:19;;;;;;;238.10;221.73;;;;;;;;;;5017561;28;21651;-71
2021/10/04 03:17:47;;;;;;;232.83;216.73;;;;;;;;;;5036902;28;20456;-70
2021/10/04 03:20:14;;;;;;;231.30;215.10;;;;;;;;;;5023926;28;20460;-72
2021/10/04 03:22:42;;;;;;;235.93;219.93;;;;;;;;;;5048092;28;20459;-70
2021/10/04 03:25:10;;;;;;;242.60;226.30;;;;;;;;;;5052689;28;20502;-71
2021/10/04 03:27:37;;;;;;;240.33;223.73;;;;;;;;;;5044495;28;20546;-70
2021/10/04 03:30:05;;;;;;;230.43;214.43;;;;;;;;;;5039841;28;20445;-71
2021/10/04 03:32:32;;;;;;;223.33;207.43;;;;;;;;;;5054436;28;20455;-71
2021/10/04 03:34:59;;;;;;;220.07;204.47;;;;;;;;;;5051677;28;20442;-71
2021/10/04 03:37:26;;;;;;;225.73;210.10;;;;;;;;;;5045407;28;20448;-71
2021/10/04 03:39:55;;;;;;;228.37;212.53;;;;;;;;;;5038356;28;20453;-70
2021/10/04 03:42:22;;;;;;;220.17;204.47;;;;;;;;;;5033134;28;20997;-71
2021/10/04 03:44:49;;;;;;;252.27;235.27;;;;;;;;;;5034944;28;20477;-71
2021/10/04 03:47:16;;;;;;;231.97;215.47;;;;;;;;;;5026294;28;20458;-70
2021/10/04 03:49:43;;;;;;;241.33;224.50;;;;;;;;;;5032050;28;20457;-70
2021/10/04 03:52:10;;;;;;;243.17;226.67;;;;;;;;;;5015997;28;20485;-70
2021/10/04 03:54:37;;;;;;;230.80;214.43;;;;;;;;;;5034688;28;20838;-69
2021/10/04 03:57:06;;;;;;;229.30;213.60;;;;;;;;;;5032020;28;20448;-70
2021/10/04 03:59:33;;;;;;;219.60;204.07;;;;;;;;;;5025933;28;20460;-70
2021/10/04 04:02:00;;;;;;;218.80;203.00;;;;;;;;;;5034338;28;20469;-70
2021/10/04 04:04:27;;;;;;;227.90;211.90;;;;;;;;;;5035381;28;20455;-71
2021/10/04 04:06:54;;;;;;;213.60;197.90;;;;;;;;;;5031546;28;20456;-71
2021/10/04 04:09:22;;;;;;;196.83;182.23;;;;;;;;;;5014864;28;20783;-72
2021/10/04 04:11:49;;;;;;;205.03;190.33;;;;;;;;;;5031483;28;20475;-79
2021/10/04 04:14:19;;;;;;;181.23;167.03;;;;;;;;;;5014543;28;20457;-76
2021/10/04 04:16:46;;;;;;;199.80;185.03;;;;;;;;;;5015701;28;20473;-71
2021/10/04 04:19:13;;;;;;;176.87;162.93;;;;;;;;;;5026677;28;20464;-78
2021/10/04 04:21:42;;;;;;;184.10;170.30;;;;;;;;;;5024412;28;20475;-73
2021/10/04 04:24:09;;;;;;;189.40;175.43;;;;;;;;;;5034632;28;20479;-74
2021/10/04 04:26:36;;;;;;;193.23;178.93;;;;;;;;;;5021423;28;20481;-72
2021/10/04 04:29:04;;;;;;;183.80;169.47;;;;;;;;;;5034629;28;20444;-71
2021/10/04 04:31:32;;;;;;;188.13;173.50;;;;;;;;;;5015438;28;20469;-75
2021/10/04 04:33:59;;;;;;;193.07;178.40;;;;;;;;;;5029039;28;20460;-77
2021/10/04 04:36:26;;;;;;;190.70;175.97;;;;;;;;;;5032953;28;21161;-71
2021/10/04 04:38:53;;;;;;;190.27;175.57;;;;;;;;;;5016585;28;20454;-79
2021/10/04 04:41:22;;;;;;;194.87;179.90;;;;;;;;;;5020582;28;20477;-74
2021/10/04 04:43:49;;;;;;;212.50;196.53;;;;;;;;;;5033973;28;20451;-74
2021/10/04 04:46:16;;;;;;;185.47;170.47;;;;;;;;;;5025276;28;21000;-73
2021/10/04 04:48:44;;;;;;;216.63;200.93;;;;;;;;;;5023312;28;20449;-71
2021/10/04 04:51:12;;;;;;;189.03;173.90;;;;;;;;;;5033003;28;20480;-75
2021/10/04 04:53:39;;;;;;;251.50;233.60;;;;;;;;;;5031326;28;20448;-73
2021/10/04 04:56:06;;;;;;;207.23;190.90;;;;;;;;;;5021874;28;20445;-77
2021/10/04 04:58:33;;;;;;;196.63;180.63;;;;;;;;;;5018867;28;20460;-75
2021/10/04 05:01:01;;;;;;;192.00;176.30;;;;;;;;;;5020578;28;20833;-74
2021/10/04 05:03:28;;;;;;;211.50;195.30;;;;;;;;;;5032038;28;20472;-80
2021/10/04 05:05:57;;;;;;;193.87;177.97;;;;;;;;;;5032502;28;20647;-71
2021/10/04 05:08:24;;;;;;;196.33;180.90;;;;;;;;;;5031658;28;20453;-73
2021/10/04 05:10:51;;;;;;;208.13;192.13;;;;;;;;;;5028007;28;20469;-77
2021/10/04 05:13:18;;;;;;;246.17;229.17;;;;;;;;;;5031470;28;20453;-76
2021/10/04 05:15:45;;;;;;;195.00;179.33;;;;;;;;;;5031871;28;20833;-74
2021/10/04 05:18:12;;;;;;;362.83;334.67;;;;;;;;;;5029282;28;20449;-76
2021/10/04 05:20:39;;;;;;;255.40;238.07;;;;;;;;;;5022648;28;20476;-76
2021/10/04 05:23:08;;;;;;;216.33;200.00;;;;;;;;;;5032657;28;20461;-73
2021/10/04 05:25:35;;;;;;;208.10;191.83;;;;;;;;;;5032133;28;20503;-72
2021/10/04 05:28:02;;;;;;;213.40;197.20;;;;;;;;;;5021719;28;20454;-71
2021/10/04 05:30:29;;;;;;;228.90;212.23;;;;;;;;;;5022419;28;20823;-79
2021/10/04 05:32:56;;;;;;;249.87;233.07;;;;;;;;;;5031318;28;20449;-74
2021/10/04 05:35:23;;;;;;;235.97;219.13;;;;;;;;;;5016733;28;20454;-75
2021/10/04 05:37:50;;;;;;;234.90;217.90;;;;;;;;;;5013082;28;20938;-72
2021/10/04 05:40:20;;;;;;;228.47;211.87;;;;;;;;;;5014257;28;20453;-78
2021/10/04 05:42:47;;;;;;;224.60;207.23;;;;;;;;;;5013992;28;20468;-77
2021/10/04 05:45:15;;;;;;;241.73;224.37;;;;;;;;;;5013660;28;20485;-71
2021/10/04 05:47:43;;;;;;;242.50;224.33;;;;;;;;;;5020696;28;20459;-76
2021/10/04 05:50:10;;;;;;;234.33;216.03;;;;;;;;;;5015752;28;20602;-71
2021/10/04 05:52:38;;;;;;;276.60;257.27;;;;;;;;;;5014587;28;20437;-76
2021/10/04 05:55:06;;;;;;;247.63;229.00;;;;;;;;;;5028068;28;20445;-70
2021/10/04 05:57:35;;;;;;;269.00;248.53;;;;;;;;;;5012403;28;20457;-70
2021/10/04 06:00:02;;;;;;;297.93;277.93;;;;;;;;;;5029346;28;20445;-71
2021/10/04 06:02:29;;;;;;;297.70;278.17;;;;;;;;;;5013695;28;20957;-68
2021/10/04 06:04:56;;;;;;;264.47;246.47;;;;;;;;;;5013756;28;20457;-63
2021/10/04 06:07:23;;;;;;;273.70;255.37;;;;;;;;;;5030340;28;20453;-66
2021/10/04 06:09:50;;;;;;;256.60;239.40;;;;;;;;;;5020141;28;20454;-72
2021/10/04 06:12:24;;;;;;;268.20;250.90;;;;;;;;;;5021526;28;21003;-71
2021/10/04 06:14:52;;;;;;;264.87;247.40;;;;;;;;;;5031146;28;20452;-70
2021/10/04 06:17:19;;;;;;;261.47;244.27;;;;;;;;;;5029339;28;20469;-65
2021/10/04 06:19:46;;;;;;;292.27;273.97;;;;;;;;;;5012339;28;20817;-65
2021/10/04 06:22:13;;;;;;;273.47;256.50;;;;;;;;;;5031271;28;20481;-68
2021/10/04 06:24:41;;;;;;;264.27;247.07;;;;;;;;;;5031788;28;20471;-66
2021/10/04 06:27:08;;;;;;;274.37;257.43;;;;;;;;;;5031429;28;20491;-68
2021/10/04 06:29:35;;;;;;;285.73;267.37;;;;;;;;;;5025820;28;20464;-70
2021/10/04 06:32:04;;;;;;;281.63;263.87;;;;;;;;;;5025736;28;20491;-66
2021/10/04 06:34:31;;;;;;;294.70;275.63;;;;;;;;;;5031988;28;20470;-67
2021/10/04 06:36:58;;;;;;;288.10;269.40;;;;;;;;;;5028296;28;20461;-67
2021/10/04 06:39:25;;;;;;;287.53;268.93;;;;;;;;;;5032544;28;20464;-66
2021/10/04 06:41:52;;;;;;;298.90;279.30;;;;;;;;;;5031464;28;20469;-67
2021/10/04 06:44:19;;;;;;;334.00;314.30;;;;;;;;;;5033226;28;20825;-66
2021/10/04 06:46:46;;;;;;;294.37;274.63;;;;;;;;;;5032606;28;20495;-65
2021/10/04 06:49:15;;;;;;;212.97;198.10;;;;;;;;;;5032073;28;20471;-68
2021/10/04 06:51:42;;;;;;;188.47;173.97;;;;;;;;;;5027382;28;21019;-68
2021/10/04 06:54:09;;;;;;;190.90;176.00;;;;;;;;;;5032009;28;20472;-68
2021/10/04 06:56:36;;;;;;;255.07;236.77;;;;;;;;;;5031225;28;20990;-68
2021/10/04 06:59:04;;;;;;;284.67;263.03;;;;;;;;;;5029756;28;20471;-68
2021/10/04 07:01:31;;;;;;;395.03;366.87;;;;;;;;;;5028753;28;21003;-69
2021/10/04 07:04:00;;;;;;;480.03;448.93;;;;;;;;;;5031466;28;20444;-68
2021/10/04 07:06:28;;;;;;;518.57;483.63;;;;;;;;;;5029789;28;20480;-68
2021/10/04 07:08:55;;;;;;;614.23;576.13;;;;;;;;;;5032391;28;20452;-69
2021/10/04 07:11:22;;;;;;;613.97;575.67;;;;;;;;;;5031516;28;20987;-68
2021/10/04 07:13:50;;;;;;;625.93;587.13;;;;;;;;;;5033384;28;20460;-68
2021/10/04 07:16:17;;;;;;;622.00;584.43;;;;;;;;;;5041446;28;20467;-68
2021/10/04 07:18:44;;;;;;;540.90;503.90;;;;;;;;;;5050018;28;20445;-68
2021/10/04 07:21:11;;;;;;;551.67;516.23;;;;;;;;;;5028690;28;20488;-67
2021/10/04 07:23:40;;;;;;;512.60;478.77;;;;;;;;;;5033826;28;20464;-67
2021/10/04 07:26:07;;;;;;;493.40;461.30;;;;;;;;;;5022116;28;20490;-68
2021/10/04 07:28:35;;;;;;;449.03;419.30;;;;;;;;;;5033296;28;20980;-68
2021/10/04 07:31:02;;;;;;;427.20;398.20;;;;;;;;;;5033465;28;20485;-68
2021/10/04 07:33:29;;;;;;;421.37;393.27;;;;;;;;;;5033793;28;20487;-68
2021/10/04 07:35:57;;;;;;;430.13;401.67;;;;;;;;;;5032635;28;20976;-68
2021/10/04 07:38:25;;;;;;;436.80;409.73;;;;;;;;;;5032729;28;20464;-68
2021/10/04 07:40:53;;;;;;;403.50;376.43;;;;;;;;;;5033822;28;20496;-68
2021/10/04 07:43:20;;;;;;;396.63;370.03;;;;;;;;;;5035019;28;20453;-68
2021/10/04 07:45:47;;;;;;;405.37;379.87;;;;;;;;;;5033168;28;21023;-68
2021/10/04 07:48:14;;;;;;;398.97;374.27;;;;;;;;;;5035324;28;20456;-68
2021/10/04 07:50:44;;;;;;;402.97;379.17;;;;;;;;;;5032479;28;20488;-68
2021/10/04 07:53:11;;;;;;;369.80;350.83;;;;;;;;;;5034113;28;20460;-72
2021/10/04 07:55:38;;;;;;;394.03;368.93;;;;;;;;;;5032408;28;20469;-72
2021/10/04 07:58:07;;;;;;;428.47;405.00;;;;;;;;;;5031002;28;20471;-72
2021/10/04 08:00:34;;;;;;;471.80;447.30;;;;;;;;;;5034070;28;20477;-72
2021/10/04 08:03:01;;;;;;;483.20;459.40;;;;;;;;;;5035198;28;20455;-72
2021/10/04 08:05:29;;;;;;;477.77;454.87;;;;;;;;;;5035210;28;20964;-72
2021/10/04 08:07:56;;;;;;;460.47;438.50;;;;;;;;;;5031537;28;20452;-72
2021/10/04 08:10:23;;;;;;;445.20;424.83;;;;;;;;;;5032800;28;20494;-72
2021/10/04 08:12:51;;;;;;;448.27;427.80;;;;;;;;;;5034233;28;20448;-72
2021/10/04 08:15:20;;;;;;;429.23;410.33;;;;;;;;;;5034407;28;20459;-73
2021/10/04 08:17:48;;;;;;;423.97;405.37;;;;;;;;;;5018854;28;20437;-72
2021/10/04 08:20:16;;;;;;;422.63;404.50;;;;;;;;;;5034023;28;20547;-72
2021/10/04 08:22:43;;;;;;;415.47;398.37;;;;;;;;;;5025546;28;20844;-71
2021/10/04 08:25:11;;;;;;;367.97;351.77;;;;;;;;;;5033318;28;20820;-71
2021/10/04 08:27:38;;;;;;;391.53;375.50;;;;;;;;;;5034276;28;20571;-71
2021/10/04 08:30:06;;;;;;;266.40;253.90;;;;;;;;;;5033067;28;20456;-71
2021/10/04 08:32:35;;;;;;;437.90;418.83;;;;;;;;;;5033814;28;20449;-71
2021/10/04 08:35:04;;;;;;;484.80;460.87;;;;;;;;;;5033276;28;20506;-71
2021/10/04 08:37:32;;;;;;;478.23;451.83;;;;;;;;;;5029880;28;20474;-70
2021/10/04 08:40:00;;;;;;;458.60;431.00;;;;;;;;;;5031318;28;20457;-69
2021/10/04 08:42:27;;;;;;;456.67;428.20;;;;;;;;;;5033476;28;20452;-70
2021/10/04 08:44:55;;;;;;;453.87;424.57;;;;;;;;;;5033160;28;20499;-70
2021/10/04 08:47:22;;;;;;;478.83;448.40;;;;;;;;;;5033268;28;20536;-71
2021/10/04 08:49:51;;;;;;;471.77;442.20;;;;;;;;;;5032800;28;20460;-71
2021/10/04 08:52:19;;;;;;;475.27;446.87;;;;;;;;;;5032405;28;20489;-70
2021/10/04 08:54:47;;;;;;;477.60;447.10;;;;;;;;;;5032909;28;20998;-70
2021/10/04 08:57:14;;;;;;;470.40;442.90;;;;;;;;;;5033650;28;20445;-71
2021/10/04 08:59:41;;;;;;;475.40;445.70;;;;;;;;;;5033905;28;20455;-70
2021/10/04 09:02:20;;;;;;;447.93;421.33;;;;;;;;;;5033406;28;20992;-70
2021/10/04 09:04:47;;;;;;;454.30;423.70;;;;;;;;;;5015927;28;20453;-70
2021/10/04 09:07:16;;;;;;;475.53;445.93;;;;;;;;;;5016856;28;20480;-70
2021/10/04 09:09:53;;;;;;;455.90;424.50;;;;;;;;;;5033135;28;20449;-69
2021/10/04 09:12:21;;;;;;;464.00;434.87;;;;;;;;;;5034154;28;20542;-70
2021/10/04 09:14:49;;;;;;;466.67;436.37;;;;;;;;;;5033197;28;20484;-71
2021/10/04 09:17:16;;;;;;;467.97;439.17;;;;;;;;;;5033568;28;20444;-70
2021/10/04 09:19:45;;;;;;;468.53;440.77;;;;;;;;;;5015998;28;20458;-70
2021/10/04 09:22:15;;;;;;;454.00;425.13;;;;;;;;;;5013963;28;20474;-71
2021/10/04 09:24:45;;;;;;;456.97;427.57;;;;;;;;;;5013421;28;21033;-71
2021/10/04 09:27:25;;;;;;;453.80;426.33;;;;;;;;;;5013469;28;20477;-70
2021/10/04 09:29:53;;;;;;;454.97;424.47;;;;;;;;;;5017322;28;20515;-70
2021/10/04 09:32:28;;;;;;;435.37;409.40;;;;;;;;;;5033507;28;20856;-70
2021/10/04 09:35:13;;;;;;;426.40;399.80;;;;;;;;;;5034390;28;20450;-70
2021/10/04 09:37:41;;;;;;;423.33;396.63;;;;;;;;;;5033301;28;20884;-70
2021/10/04 09:40:25;;;;;;;420.77;392.37;;;;;;;;;;5031871;28;20459;-70
2021/10/04 09:42:52;;;;;;;430.00;401.50;;;;;;;;;;5033038;28;20448;-71
2021/10/04 09:45:19;;;;;;;435.80;408.07;;;;;;;;;;5033203;28;20449;-71
2021/10/04 09:47:46;;;;;;;434.77;407.57;;;;;;;;;;5033727;28;20481;-70
2021/10/04 09:50:14;;;;;;;402.83;379.27;;;;;;;;;;5033889;28;20444;-71
2021/10/04 09:52:43;;;;;;;455.73;429.13;;;;;;;;;;5034560;28;20450;-71
2021/10/04 09:55:16;;;;;;;448.30;420.70;;;;;;;;;;5033361;28;20463;-70
2021/10/04 09:57:43;;;;;;;402.23;377.00;;;;;;;;;;5034558;28;20448;-71
2021/10/04 10:00:13;;;;;;;420.60;395.23;;;;;;;;;;5032925;28;20812;-71
2021/10/04 10:02:41;;;;;;;453.53;426.70;;;;;;;;;;5032634;28;20940;-71
2021/10/04 10:05:08;;;;;;;410.27;384.90;;;;;;;;;;5020940;28;20472;-71
2021/10/04 10:07:35;;;;;;;423.27;398.37;;;;;;;;;;5012346;28;20484;-71
2021/10/04 10:10:03;;;;;;;423.43;398.13;;;;;;;;;;5012406;28;20826;-71
2021/10/04 10:12:32;;;;;;;437.77;411.90;;;;;;;;;;5015486;28;20987;-72
2021/10/04 10:14:59;;;;;;;454.20;428.00;;;;;;;;;;5015492;28;20458;-71
2021/10/04 10:17:28;;;;;;;442.93;417.63;;;;;;;;;;5012679;28;20446;-72
2021/10/04 10:19:56;;;;;;;437.70;412.53;;;;;;;;;;5022786;28;20449;-71
2021/10/04 10:22:28;;;;;;;430.93;404.83;;;;;;;;;;5032341;28;20491;-71
2021/10/04 10:24:56;;;;;;;471.93;442.53;;;;;;;;;;5031933;28;20445;-71
2021/10/04 10:27:38;;;;;;;417.07;391.57;;;;;;;;;;5030431;28;20835;-71
2021/10/04 10:30:18;;;;;;;439.00;413.40;;;;;;;;;;5012037;28;20449;-70
2021/10/04 10:32:45;;;;;;;420.33;395.30;;;;;;;;;;5012395;28;20941;-71
2021/10/04 10:35:12;;;;;;;426.17;401.37;;;;;;;;;;5011949;28;20458;-71
2021/10/04 10:37:47;;;;;;;428.23;401.43;;;;;;;;;;5011757;28;20434;-71
2021/10/04 10:40:15;;;;;;;417.63;391.90;;;;;;;;;;5029277;28;20456;-71
2021/10/04 10:42:43;;;;;;;418.10;393.00;;;;;;;;;;5029042;28;20936;-70
2021/10/04 10:45:14;;;;;;;459.57;432.37;;;;;;;;;;5011834;28;20452;-71
2021/10/04 10:47:53;;;;;;;413.60;389.43;;;;;;;;;;5013369;28;20481;-71
2021/10/04 10:50:26;;;;;;;463.13;437.43;;;;;;;;;;5015828;28;20472;-70
2021/10/04 10:53:03;;;;;;;429.43;403.03;;;;;;;;;;5014583;28;20461;-71
2021/10/04 10:55:33;;;;;;;410.87;386.50;;;;;;;;;;5015529;28;20801;-71
2021/10/04 10:58:01;;;;;;;402.87;379.27;;;;;;;;;;5016219;28;20446;-71
2021/10/04 11:00:29;;;;;;;447.43;422.03;;;;;;;;;;5034765;28;20465;-71
2021/10/04 11:02:59;;;;;;;453.10;426.87;;;;;;;;;;5035240;28;20875;-71
2021/10/04 11:05:45;;;;;;;386.57;364.67;;;;;;;;;;5034647;28;20518;-70
2021/10/04 11:08:14;;;;;;;414.70;390.53;;;;;;;;;;5035320;28;20492;-71
2021/10/04 11:10:56;;;;;;;410.93;387.53;;;;;;;;;;5034889;28;20472;-70
2021/10/04 11:13:24;;;;;;;394.67;369.83;;;;;;;;;;5014709;28;20577;-71
2021/10/04 11:15:52;;;;;;;430.80;408.80;;;;;;;;;;5015343;28;20445;-71
2021/10/04 11:18:21;;;;;;;450.17;425.87;;;;;;;;;;5015296;28;20820;-71
2021/10/04 11:20:48;;;;;;;447.90;422.93;;;;;;;;;;5014968;28;21061;-70
2021/10/04 11:23:16;;;;;;;433.60;409.00;;;;;;;;;;5041554;28;20460;-69
2021/10/04 11:25:44;;;;;;;440.03;415.10;;;;;;;;;;5037672;28;20456;-68
2021/10/04 11:28:11;;;;;;;443.17;417.97;;;;;;;;;;5028723;28;20480;-66
2021/10/04 11:30:52;;;;;;;456.13;430.63;;;;;;;;;;5032410;28;20984;-69
2021/10/04 11:33:20;;;;;;;430.87;405.77;;;;;;;;;;5023395;28;20804;-70
2021/10/04 11:35:57;;;;;;;422.53;398.03;;;;;;;;;;5031666;28;20466;-69
2021/10/04 11:38:24;;;;;;;423.60;399.27;;;;;;;;;;5035584;28;20475;-69
2021/10/04 11:40:51;;;;;;;449.50;424.50;;;;;;;;;;5034302;28;20995;-69
2021/10/04 11:43:19;;;;;;;443.40;418.10;;;;;;;;;;5034302;28;20445;-70
2021/10/04 11:45:46;;;;;;;438.40;413.10;;;;;;;;;;5034271;28;20959;-70
2021/10/04 11:48:28;;;;;;;426.47;401.77;;;;;;;;;;5030613;28;20492;-69
2021/10/04 11:50:56;;;;;;;434.03;408.77;;;;;;;;;;5031806;28;21014;-70
2021/10/04 11:53:23;;;;;;;451.50;426.50;;;;;;;;;;5031296;28;20464;-69
2021/10/04 11:55:58;;;;;;;431.53;406.43;;;;;;;;;;5041685;28;20527;-69
2021/10/04 11:58:25;;;;;;;431.63;407.47;;;;;;;;;;5039724;28;20959;-70
2021/10/04 12:00:52;;;;;;;425.40;400.40;;;;;;;;;;5052396;28;20474;-69
2021/10/04 12:03:28;;;;;;;407.30;383.30;;;;;;;;;;5051121;28;20536;-69
2021/10/04 12:05:55;;;;;;;399.80;376.40;;;;;;;;;;5038437;28;20440;-69
2021/10/04 12:08:23;;;;;;;402.13;378.13;;;;;;;;;;5050590;28;20484;-70
2021/10/04 12:10:56;;;;;;;374.40;350.50;;;;;;;;;;5048651;28;20471;-69
2021/10/04 12:13:24;;;;;;;395.47;372.20;;;;;;;;;;5043662;28;20450;-69
2021/10/04 12:15:52;;;;;;;374.93;352.13;;;;;;;;;;5031024;28;20458;-70
2021/10/04 12:18:20;;;;;;;409.47;388.03;;;;;;;;;;5034170;28;20823;-70
2021/10/04 12:20:49;;;;;;;409.67;390.97;;;;;;;;;;5046499;28;20568;-72
2021/10/04 12:23:20;;;;;;;312.87;298.97;;;;;;;;;;5031060;28;20507;-70
2021/10/04 12:25:48;;;;;;;249.87;239.07;;;;;;;;;;5015075;28;20544;-70
2021/10/04 12:28:18;;;;;;;183.43;174.90;;;;;;;;;;5024347;28;20476;-70
2021/10/04 12:30:46;;;;;;;274.17;262.73;;;;;;;;;;5022852;28;20468;-70
2021/10/04 12:33:13;;;;;;;383.03;368.10;;;;;;;;;;5026134;28;20460;-70
2021/10/04 12:35:40;;;;;;;420.30;403.33;;;;;;;;;;5021490;28;20450;-70
2021/10/04 12:38:10;;;;;;;417.03;399.43;;;;;;;;;;5020412;28;20449;-70
2021/10/04 12:40:44;;;;;;;397.10;381.37;;;;;;;;;;5028782;28;20493;-73
2021/10/04 12:43:12;;;;;;;409.23;392.30;;;;;;;;;;5040018;28;20507;-70
2021/10/04 12:45:39;;;;;;;430.87;412.67;;;;;;;;;;5036844;28;21018;-70
2021/10/04 12:48:08;;;;;;;431.27;412.47;;;;;;;;;;5046196;28;20490;-70
2021/10/04 12:50:36;;;;;;;450.87;429.30;;;;;;;;;;5045141;28;20484;-72
2021/10/04 12:53:15;;;;;;;438.40;416.93;;;;;;;;;;5033454;28;20456;-70
2021/10/04 12:55:45;;;;;;;449.93;427.73;;;;;;;;;;5017351;28;20445;-69
2021/10/04 12:58:13;;;;;;;446.13;423.63;;;;;;;;;;5014613;28;20454;-70
2021/10/04 13:00:40;;;;;;;452.77;430.50;;;;;;;;;;5014084;28;20523;-69
2021/10/04 13:03:07;;;;;;;457.77;436.10;;;;;;;;;;5014767;28;20453;-69
2021/10/04 13:05:34;;;;;;;478.63;456.13;;;;;;;;;;5016449;28;20453;-69
2021/10/04 13:08:01;;;;;;;325.00;311.40;;;;;;;;;;5034495;28;21008;-69
2021/10/04 13:10:30;;;;;;;164.73;157.27;;;;;;;;;;5037325;28;20487;-70
2021/10/04 13:13:00;;;;;;;128.33;122.23;;;;;;;;;;5022433;28;20453;-70
2021/10/04 13:15:27;;;;;;;144.87;137.77;;;;;;;;;;5027467;28;20477;-71
2021/10/04 13:17:54;;;;;;;106.53;101.13;;;;;;;;;;5020848;28;20827;-69
2021/10/04 13:20:22;;;;;;;111.70;106.30;;;;;;;;;;5026969;28;20488;-70
2021/10/04 13:22:49;;;;;;;139.63;133.13;;;;;;;;;;5033419;28;20468;-68
2021/10/04 13:25:16;;;;;;;114.23;108.77;;;;;;;;;;5028382;28;20463;-70
2021/10/04 13:27:45;;;;;;;173.53;165.93;;;;;;;;;;5030856;28;20484;-70
2021/10/04 13:30:12;;;;;;;100.53;95.13;;;;;;;;;;5033246;28;20803;-70
2021/10/04 13:32:39;;;;;;;166.93;159.43;;;;;;;;;;5035922;28;20463;-70
2021/10/04 13:35:06;;;;;;;189.20;181.03;;;;;;;;;;5032118;28;20464;-69
2021/10/04 13:37:34;;;;;;;253.00;242.00;;;;;;;;;;5032183;28;20821;-67
2021/10/04 13:40:01;;;;;;;178.97;171.30;;;;;;;;;;5032250;28;20936;-69
2021/10/04 13:42:32;;;;;;;131.57;124.77;;;;;;;;;;5031754;28;20448;-68
2021/10/04 13:45:01;;;;;;;89.13;84.47;;;;;;;;;;5029002;28;20734;-67
2021/10/04 13:47:28;;;;;;;68.20;64.60;;;;;;;;;;5032353;28;20824;-69
2021/10/04 13:49:55;;;;;;;53.80;50.90;;;;;;;;;;5031446;28;20559;-69
2021/10/04 13:52:22;;;;;;;43.77;41.27;;;;;;;;;;5032102;28;21002;-69
2021/10/04 13:54:50;;;;;;;50.00;47.10;;;;;;;;;;5031415;28;20472;-69
2021/10/04 13:57:17;;;;;;;61.73;58.30;;;;;;;;;;5032128;28;20450;-69
2021/10/04 13:59:45;;;;;;;90.07;85.37;;;;;;;;;;5028139;28;20838;-68